Time;durP1;ratioP1;P1;durP2;ratioP2;P2;SDS_P1;SDS_P2;PMS_P1;PMS_P2;Temp;Humidity;BMP_temperature;BMP_pressure;BME280_temperature;BME280_humidity;BME280_pressure;Samples;Min_cycle;Max_cycle;Signal;HPM_P1;HPM_P2
2023/05/06 00:00:30;;;;;;;0.00;0.00;;;13.80;99.90;;;;;;5092572;28;20263;-63
2023/05/06 00:02:55;;;;;;;0.00;0.00;;;13.80;99.90;;;;;;5092039;28;20236;-63
2023/05/06 00:05:21;;;;;;;0.00;0.00;;;13.80;99.90;;;;;;5092259;28;20233;-63
2023/05/06 00:07:46;;;;;;;0.00;0.00;;;13.80;99.90;;;;;;5092075;28;20202;-63
2023/05/06 00:10:12;;;;;;;0.00;0.00;;;13.90;99.90;;;;;;5092158;28;20184;-63
2023/05/06 00:12:38;;;;;;;0.00;0.00;;;13.90;99.90;;;;;;5092261;28;20164;-63
2023/05/06 00:15:04;;;;;;;0.00;0.00;;;13.90;99.90;;;;;;5092232;28;20213;-63
2023/05/06 00:17:30;;;;;;;0.00;0.00;;;13.90;99.90;;;;;;5091846;28;20233;-63
2023/05/06 00:19:57;;;;;;;0.10;0.10;;;13.80;99.90;;;;;;5092211;28;20180;-63
2023/05/06 00:22:23;;;;;;;0.00;0.00;;;13.90;99.90;;;;;;5091745;28;20182;-63
2023/05/06 00:24:49;;;;;;;0.00;0.00;;;13.90;99.90;;;;;;5092054;28;20310;-63
2023/05/06 00:27:14;;;;;;;0.00;0.00;;;13.80;99.90;;;;;;5091753;28;20184;-63
2023/05/06 00:29:40;;;;;;;0.00;0.00;;;13.80;99.90;;;;;;5092082;28;20175;-63
2023/05/06 00:32:05;;;;;;;0.15;0.15;;;13.80;99.90;;;;;;5091320;28;20240;-63
2023/05/06 00:34:31;;;;;;;0.00;0.00;;;13.80;99.90;;;;;;5092004;28;20219;-63
2023/05/06 00:36:57;;;;;;;0.00;0.00;;;13.80;99.90;;;;;;5090045;28;20180;-63
2023/05/06 00:39:23;;;;;;;0.00;0.00;;;13.90;99.90;;;;;;5091880;28;20176;-63
2023/05/06 00:41:49;;;;;;;0.00;0.00;;;13.90;99.90;;;;;;5091644;28;20172;-63
2023/05/06 00:44:14;;;;;;;0.00;0.00;;;13.90;99.90;;;;;;5091280;28;20516;-63
2023/05/06 00:46:41;;;;;;;0.00;0.00;;;13.90;99.90;;;;;;5091369;28;20168;-63
2023/05/06 00:49:07;;;;;;;0.00;0.00;;;13.90;99.90;;;;;;5091729;28;20187;-63
2023/05/06 00:51:33;;;;;;;0.00;0.00;;;13.90;99.90;;;;;;5091351;28;20180;-63
2023/05/06 00:54:00;;;;;;;0.10;0.10;;;13.90;99.90;;;;;;5091390;28;20789;-65
2023/05/06 00:56:26;;;;;;;0.00;0.00;;;13.90;99.90;;;;;;5091518;28;20176;-63
2023/05/06 00:58:53;;;;;;;0.00;0.00;;;13.90;99.90;;;;;;5091665;28;20193;-63
2023/05/06 01:01:20;;;;;;;0.00;0.00;;;13.90;99.90;;;;;;5091117;28;20516;-64
2023/05/06 01:03:46;;;;;;;0.00;0.00;;;13.90;99.90;;;;;;5091469;28;20566;-64
2023/05/06 01:06:19;;;;;;;0.00;0.00;;;13.90;99.90;;;;;;5091199;28;20180;-64
2023/05/06 01:09:04;;;;;;;0.00;0.00;;;13.90;99.90;;;;;;5091292;28;20251;-64
2023/05/06 01:11:48;;;;;;;0.00;0.00;;;13.90;99.90;;;;;;5091397;28;20187;-64
2023/05/06 01:14:39;;;;;;;0.00;0.00;;;13.80;99.90;;;;;;5091280;28;20215;-64
2023/05/06 01:17:10;;;;;;;0.00;0.00;;;13.80;99.90;;;;;;5090700;28;20221;-63
2023/05/06 01:19:40;;;;;;;0.00;0.00;;;13.80;99.90;;;;;;5091290;28;20555;-64
2023/05/06 01:22:07;;;;;;;0.25;0.25;;;13.90;99.90;;;;;;5090848;28;20175;-63
2023/05/06 01:24:50;;;;;;;0.00;0.00;;;13.90;99.90;;;;;;5091224;28;20241;-63
2023/05/06 01:27:17;;;;;;;0.30;0.10;;;13.90;99.90;;;;;;5090721;28;20836;-64
2023/05/06 01:29:45;;;;;;;0.00;0.00;;;13.90;99.90;;;;;;5091301;28;20618;-63
2023/05/06 01:32:47;;;;;;;0.00;0.00;;;13.90;99.90;;;;;;5090703;28;20267;-64
2023/05/06 01:35:31;;;;;;;0.00;0.00;;;13.90;99.90;;;;;;5091235;28;20195;-64
2023/05/06 01:38:22;;;;;;;0.00;0.00;;;13.90;99.90;;;;;;5090667;28;20183;-64
2023/05/06 01:40:53;;;;;;;0.00;0.00;;;13.90;99.90;;;;;;5091005;28;20187;-64
2023/05/06 01:43:19;;;;;;;0.00;0.00;;;14.00;99.90;;;;;;5090862;28;20184;-64
2023/05/06 01:45:51;;;;;;;0.00;0.00;;;14.00;99.90;;;;;;5090954;28;20172;-64
2023/05/06 01:48:22;;;;;;;0.00;0.00;;;14.00;99.90;;;;;;5090611;28;20195;-63
2023/05/06 01:50:47;;;;;;;0.00;0.00;;;13.90;99.90;;;;;;5090813;28;20607;-63
2023/05/06 01:53:13;;;;;;;0.00;0.00;;;13.90;99.90;;;;;;5085691;28;20238;-64
2023/05/06 01:55:38;;;;;;;0.00;0.00;;;13.90;99.90;;;;;;5090941;28;20168;-63
2023/05/06 01:58:04;;;;;;;0.00;0.00;;;14.00;99.90;;;;;;5093226;28;20643;-63
2023/05/06 02:00:29;;;;;;;0.00;0.00;;;14.00;99.90;;;;;;5094846;28;20199;-64
2023/05/06 02:02:55;;;;;;;0.00;0.00;;;14.00;99.90;;;;;;5092855;28;20195;-64
2023/05/06 02:05:21;;;;;;;0.00;0.00;;;14.00;99.90;;;;;;5094464;28;20181;-64
2023/05/06 02:07:46;;;;;;;0.00;0.00;;;14.00;99.90;;;;;;5094378;28;20187;-63
2023/05/06 02:10:12;;;;;;;0.00;0.00;;;14.00;99.90;;;;;;5094432;28;20172;-63
2023/05/06 02:12:37;;;;;;;0.08;0.08;;;13.90;99.90;;;;;;5094240;28;20262;-64
2023/05/06 02:15:03;;;;;;;0.57;0.57;;;13.90;99.90;;;;;;5094241;28;20218;-64
2023/05/06 02:17:28;;;;;;;0.00;0.00;;;13.90;99.90;;;;;;5094210;28;20669;-64
2023/05/06 02:19:54;;;;;;;0.00;0.00;;;13.90;99.90;;;;;;5094204;28;20497;-64
2023/05/06 02:22:19;;;;;;;0.00;0.00;;;13.90;99.90;;;;;;5093674;28;20196;-64
2023/05/06 02:24:45;;;;;;;0.10;0.10;;;13.90;99.90;;;;;;5094165;28;20234;-64
2023/05/06 02:27:10;;;;;;;0.00;0.00;;;13.90;99.90;;;;;;5093616;28;20178;-64
2023/05/06 02:29:36;;;;;;;0.00;0.00;;;13.90;99.90;;;;;;5094270;28;20567;-64
2023/05/06 02:32:01;;;;;;;0.00;0.00;;;13.80;99.90;;;;;;5092528;28;20691;-64
2023/05/06 02:34:27;;;;;;;0.00;0.00;;;13.80;99.90;;;;;;5093735;28;20565;-64
2023/05/06 02:36:52;;;;;;;0.00;0.00;;;13.80;99.90;;;;;;5093789;28;20220;-64
2023/05/06 02:39:18;;;;;;;0.10;0.10;;;13.70;99.90;;;;;;5093931;28;20544;-64
2023/05/06 02:41:44;;;;;;;0.00;0.00;;;13.70;99.90;;;;;;5093564;28;20183;-64
2023/05/06 02:44:09;;;;;;;0.10;0.10;;;13.70;99.90;;;;;;5093922;28;20183;-64
2023/05/06 02:46:35;;;;;;;0.00;0.00;;;13.70;99.90;;;;;;5093858;28;20585;-64
2023/05/06 02:49:00;;;;;;;0.00;0.00;;;13.60;99.90;;;;;;5093400;28;20185;-64
2023/05/06 02:51:26;;;;;;;0.10;0.10;;;13.60;99.90;;;;;;5093758;28;20172;-64
2023/05/06 02:53:51;;;;;;;0.10;0.10;;;13.60;99.90;;;;;;5092471;28;20663;-64
2023/05/06 02:56:17;;;;;;;0.17;0.17;;;13.60;99.90;;;;;;5093460;28;20180;-64
2023/05/06 02:58:42;;;;;;;0.00;0.00;;;13.60;99.90;;;;;;5093377;28;20180;-64
2023/05/06 03:01:08;;;;;;;0.00;0.00;;;13.60;99.90;;;;;;5093526;28;20255;-64
2023/05/06 03:03:34;;;;;;;0.05;0.05;;;13.60;99.90;;;;;;5092860;28;20184;-64
2023/05/06 03:05:59;;;;;;;0.00;0.00;;;13.60;99.90;;;;;;5093138;28;20180;-64
2023/05/06 03:08:25;;;;;;;0.00;0.00;;;13.60;99.90;;;;;;5093105;28;20178;-64
2023/05/06 03:10:51;;;;;;;0.20;0.20;;;13.60;99.90;;;;;;5093077;28;20180;-64
2023/05/06 03:13:16;;;;;;;0.00;0.00;;;13.60;99.90;;;;;;5093091;28;20204;-64
2023/05/06 03:15:42;;;;;;;0.10;0.10;;;13.60;99.90;;;;;;5093154;28;20180;-64
2023/05/06 03:18:07;;;;;;;0.00;0.00;;;13.60;99.90;;;;;;5092847;28;20169;-64
2023/05/06 03:20:33;;;;;;;0.00;0.00;;;13.50;99.90;;;;;;5093289;28;20172;-63
2023/05/06 03:22:58;;;;;;;0.00;0.00;;;13.50;99.90;;;;;;5092438;28;20262;-63
2023/05/06 03:25:24;;;;;;;0.00;0.00;;;13.50;99.90;;;;;;5093369;28;20540;-63
2023/05/06 03:27:50;;;;;;;0.00;0.00;;;13.50;99.90;;;;;;5092888;28;20179;-63
2023/05/06 03:30:15;;;;;;;0.00;0.00;;;13.40;99.90;;;;;;5093052;28;20180;-63
2023/05/06 03:32:41;;;;;;;0.00;0.00;;;13.40;99.90;;;;;;5092456;28;20176;-64
2023/05/06 03:35:07;;;;;;;0.00;0.00;;;13.40;99.90;;;;;;5092761;28;20176;-63
2023/05/06 03:37:32;;;;;;;0.10;0.10;;;13.30;99.90;;;;;;5092687;28;20297;-64
2023/05/06 03:39:59;;;;;;;0.47;0.35;;;13.30;99.90;;;;;;5092815;28;20652;-64
2023/05/06 03:42:25;;;;;;;0.00;0.00;;;13.30;99.90;;;;;;5092464;28;20237;-64
2023/05/06 03:44:50;;;;;;;0.00;0.00;;;13.30;99.90;;;;;;5092564;28;20619;-64
2023/05/06 03:47:16;;;;;;;0.00;0.00;;;13.30;99.90;;;;;;5092412;28;20192;-63
2023/05/06 03:49:41;;;;;;;0.20;0.20;;;13.30;99.90;;;;;;5092403;28;20222;-63
2023/05/06 03:52:07;;;;;;;0.50;0.50;;;13.30;99.90;;;;;;5092256;28;20176;-63
2023/05/06 03:54:32;;;;;;;0.00;0.00;;;13.30;99.90;;;;;;5092671;28;20261;-63
2023/05/06 03:56:58;;;;;;;0.00;0.00;;;13.30;99.90;;;;;;5092219;28;20263;-63
2023/05/06 03:59:23;;;;;;;0.10;0.10;;;13.30;99.90;;;;;;5092546;28;20194;-63
2023/05/06 04:01:50;;;;;;;0.00;0.00;;;13.20;99.90;;;;;;5092589;28;20535;-63
2023/05/06 04:04:15;;;;;;;0.00;0.00;;;13.20;99.90;;;;;;5092102;28;20240;-63
2023/05/06 04:06:41;;;;;;;0.00;0.00;;;13.20;99.90;;;;;;5091482;28;20615;-63
2023/05/06 04:09:06;;;;;;;0.00;0.00;;;13.20;99.90;;;;;;5092381;28;20221;-63
2023/05/06 04:11:32;;;;;;;0.45;0.45;;;13.10;99.90;;;;;;5092541;28;20173;-61
2023/05/06 04:13:57;;;;;;;0.00;0.00;;;13.10;99.90;;;;;;5091656;28;20208;-62
2023/05/06 04:16:23;;;;;;;0.00;0.00;;;13.10;99.90;;;;;;5092158;28;20168;-62
2023/05/06 04:18:50;;;;;;;0.00;0.00;;;13.10;99.90;;;;;;5091672;28;20184;-62
2023/05/06 04:21:17;;;;;;;0.43;0.43;;;13.10;99.90;;;;;;5092110;28;20524;-63
2023/05/06 04:23:43;;;;;;;0.00;0.00;;;13.10;99.90;;;;;;5091770;28;20212;-62
2023/05/06 04:26:09;;;;;;;0.00;0.00;;;13.10;99.90;;;;;;5091782;28;20190;-63
2023/05/06 04:28:34;;;;;;;0.30;0.30;;;13.10;99.90;;;;;;5091941;28;20168;-63
2023/05/06 04:31:01;;;;;;;0.15;0.05;;;13.10;99.90;;;;;;5091686;28;20259;-62
2023/05/06 04:33:27;;;;;;;0.00;0.00;;;13.10;99.90;;;;;;5091804;28;20206;-62
2023/05/06 04:35:53;;;;;;;0.10;0.10;;;13.10;99.90;;;;;;5091697;28;20176;-62
2023/05/06 04:38:24;;;;;;;0.00;0.00;;;13.10;99.90;;;;;;5091590;28;20275;-61
2023/05/06 04:40:50;;;;;;;0.00;0.00;;;13.20;99.90;;;;;;5090459;28;20184;-62
2023/05/06 04:43:15;;;;;;;0.15;0.15;;;13.20;99.90;;;;;;5091467;28;20176;-63
2023/05/06 04:45:47;;;;;;;0.00;0.00;;;13.20;99.90;;;;;;5091402;28;20653;-63
2023/05/06 04:48:17;;;;;;;0.00;0.00;;;13.30;99.90;;;;;;5091276;28;20615;-62
2023/05/06 04:50:43;;;;;;;0.00;0.00;;;13.40;99.90;;;;;;5089659;28;20190;-62
2023/05/06 04:53:09;;;;;;;0.00;0.00;;;13.60;99.90;;;;;;5091233;28;20560;-63
2023/05/06 04:55:35;;;;;;;0.00;0.00;;;13.70;99.90;;;;;;5091152;28;20225;-62
2023/05/06 04:58:00;;;;;;;0.00;0.00;;;13.90;99.90;;;;;;5091216;28;20171;-62
2023/05/06 05:00:26;;;;;;;0.00;0.00;;;14.10;99.90;;;;;;5091326;28;20591;-62
2023/05/06 05:02:52;;;;;;;0.22;0.22;;;14.40;99.90;;;;;;5091045;28;20172;-64
2023/05/06 05:05:18;;;;;;;0.00;0.00;;;14.70;99.90;;;;;;5090679;28;20168;-62
2023/05/06 05:07:43;;;;;;;0.00;0.00;;;14.90;99.90;;;;;;5091089;28;20172;-61
2023/05/06 05:10:09;;;;;;;0.00;0.00;;;15.10;99.90;;;;;;5090977;28;20172;-61
2023/05/06 05:12:35;;;;;;;0.00;0.00;;;15.20;99.90;;;;;;5091140;28;20176;-62
2023/05/06 05:15:01;;;;;;;0.00;0.00;;;15.30;99.90;;;;;;5090859;28;20215;-61
2023/05/06 05:17:26;;;;;;;0.00;0.00;;;15.50;99.90;;;;;;5091161;28;20182;-62
2023/05/06 05:19:52;;;;;;;0.00;0.00;;;15.70;99.90;;;;;;5091277;28;20225;-60
2023/05/06 05:22:17;;;;;;;0.00;0.00;;;15.90;99.90;;;;;;5091023;28;20180;-62
2023/05/06 05:24:43;;;;;;;0.00;0.00;;;16.20;99.90;;;;;;5091020;28;20564;-60
2023/05/06 05:27:09;;;;;;;0.00;0.00;;;16.50;99.90;;;;;;5090424;28;20183;-61
2023/05/06 05:29:35;;;;;;;0.00;0.00;;;16.80;99.90;;;;;;5089813;28;20168;-63
2023/05/06 05:32:01;;;;;;;0.00;0.00;;;17.10;99.90;;;;;;5093553;28;20656;-62
2023/05/06 05:34:26;;;;;;;0.00;0.00;;;17.50;99.90;;;;;;5094330;28;20215;-62
2023/05/06 05:36:52;;;;;;;0.00;0.00;;;17.90;99.90;;;;;;5094714;28;20537;-62
2023/05/06 05:39:17;;;;;;;0.00;0.00;;;18.10;99.90;;;;;;5094578;28;20184;-62
2023/05/06 05:41:43;;;;;;;0.03;0.03;;;18.20;99.90;;;;;;5095276;28;20172;-62
2023/05/06 05:44:08;;;;;;;0.00;0.00;;;18.30;99.90;;;;;;5095286;28;20172;-61
2023/05/06 05:46:34;;;;;;;0.00;0.00;;;18.40;99.90;;;;;;5095392;28;20229;-62
2023/05/06 05:49:00;;;;;;;0.00;0.00;;;18.40;99.90;;;;;;5095139;28;20176;-62
2023/05/06 05:51:25;;;;;;;0.00;0.00;;;18.30;99.90;;;;;;5095234;28;20207;-62
2023/05/06 05:53:51;;;;;;;0.13;0.13;;;18.40;99.90;;;;;;5095148;28;20218;-62
2023/05/06 05:56:17;;;;;;;0.50;0.50;;;18.50;99.90;;;;;;5094926;28;20175;-62
2023/05/06 05:58:42;;;;;;;0.00;0.00;;;18.60;99.90;;;;;;5095233;28;20180;-62
2023/05/06 06:01:08;;;;;;;0.47;0.10;;;18.90;99.90;;;;;;5094840;28;20205;-62
2023/05/06 06:03:33;;;;;;;0.00;0.00;;;19.40;99.90;;;;;;5095056;28;20200;-62
2023/05/06 06:06:00;;;;;;;0.00;0.00;;;19.80;99.90;;;;;;5094787;28;20632;-62
2023/05/06 06:08:25;;;;;;;0.05;0.00;;;20.10;99.90;;;;;;5095001;28;20172;-62
2023/05/06 06:10:51;;;;;;;0.00;0.00;;;20.30;99.90;;;;;;5094958;28;20164;-62
2023/05/06 06:13:17;;;;;;;0.00;0.00;;;20.80;99.90;;;;;;5094517;28;20291;-62
2023/05/06 06:15:42;;;;;;;0.00;0.00;;;21.30;99.90;;;;;;5094788;28;20176;-62
2023/05/06 06:18:08;;;;;;;0.00;0.00;;;21.80;99.90;;;;;;5094493;28;20172;-62
2023/05/06 06:20:34;;;;;;;0.00;0.00;;;22.00;99.90;;;;;;5094721;28;20310;-62
2023/05/06 06:23:00;;;;;;;0.00;0.00;;;22.40;99.90;;;;;;5094110;28;21211;-62
2023/05/06 06:25:26;;;;;;;0.00;0.00;;;22.80;99.90;;;;;;5093422;28;20259;-62
2023/05/06 06:27:52;;;;;;;0.00;0.00;;;22.80;99.90;;;;;;5093353;28;20179;-62
2023/05/06 06:30:18;;;;;;;0.00;0.00;;;23.00;99.90;;;;;;5093377;28;20233;-62
2023/05/06 06:32:51;;;;;;;0.00;0.00;;;23.20;99.90;;;;;;5093168;28;20172;-63
2023/05/06 06:35:18;;;;;;;0.00;0.00;;;23.40;99.90;;;;;;5093057;28;20182;-62
2023/05/06 06:37:44;;;;;;;0.00;0.00;;;23.50;99.00;;;;;;5093122;28;20164;-62
2023/05/06 06:40:10;;;;;;;0.00;0.00;;;23.60;98.50;;;;;;5093093;28;20263;-63
2023/05/06 06:42:36;;;;;;;0.00;0.00;;;23.50;98.50;;;;;;5092638;28;20180;-62
2023/05/06 06:45:02;;;;;;;0.00;0.00;;;23.60;98.70;;;;;;5092985;28;20176;-62
2023/05/06 06:47:28;;;;;;;0.00;0.00;;;23.60;98.10;;;;;;5093196;28;20535;-62
2023/05/06 06:49:53;;;;;;;0.00;0.00;;;23.50;97.60;;;;;;5092873;28;20172;-62
2023/05/06 06:52:19;;;;;;;0.35;0.35;;;23.40;97.80;;;;;;5092851;28;20199;-62
2023/05/06 06:54:44;;;;;;;0.00;0.00;;;23.30;98.10;;;;;;5092904;28;20212;-62
2023/05/06 06:57:10;;;;;;;0.00;0.00;;;23.60;98.40;;;;;;5092807;28;20497;-62
2023/05/06 06:59:36;;;;;;;0.00;0.00;;;24.20;97.70;;;;;;5092567;28;20191;-62
2023/05/06 07:02:01;;;;;;;0.00;0.00;;;24.90;96.80;;;;;;5092723;28;20168;-62
2023/05/06 07:04:27;;;;;;;0.00;0.00;;;25.40;95.60;;;;;;5092845;28;20200;-62
2023/05/06 07:06:52;;;;;;;0.00;0.00;;;25.90;94.10;;;;;;5092697;28;20176;-62
2023/05/06 07:09:18;;;;;;;0.00;0.00;;;26.20;93.70;;;;;;5092520;28;20202;-62
2023/05/06 07:11:43;;;;;;;0.00;0.00;;;26.60;92.90;;;;;;5092658;28;20245;-62
2023/05/06 07:14:10;;;;;;;0.00;0.00;;;26.90;92.10;;;;;;5092398;28;20212;-63
2023/05/06 07:16:36;;;;;;;0.15;0.15;;;27.10;89.80;;;;;;5092496;28;20183;-63
2023/05/06 07:19:01;;;;;;;0.00;0.00;;;27.00;89.30;;;;;;5092481;28;20180;-63
2023/05/06 07:21:27;;;;;;;0.00;0.00;;;27.10;88.40;;;;;;5092618;28;20173;-62
2023/05/06 07:23:52;;;;;;;0.00;0.00;;;26.70;87.00;;;;;;5056079;28;1039267;-62
2023/05/06 07:26:18;;;;;;;0.00;0.00;;;26.20;87.10;;;;;;5093273;28;20256;-62
2023/05/06 07:28:43;;;;;;;0.05;0.05;;;25.60;89.10;;;;;;5093302;28;20168;-62
2023/05/06 07:31:09;;;;;;;0.00;0.00;;;25.00;90.40;;;;;;5093168;28;20176;-62
2023/05/06 07:33:35;;;;;;;0.00;0.00;;;25.20;91.50;;;;;;5093308;28;20207;-62
2023/05/06 07:36:00;;;;;;;0.00;0.00;;;25.90;90.70;;;;;;5093109;28;20184;-62
2023/05/06 07:38:26;;;;;;;0.00;0.00;;;26.30;88.50;;;;;;5093149;28;20176;-62
2023/05/06 07:40:52;;;;;;;0.00;0.00;;;25.90;85.80;;;;;;5093120;28;20232;-62
2023/05/06 07:43:17;;;;;;;0.00;0.00;;;25.40;86.80;;;;;;5092999;28;20190;-62
2023/05/06 07:45:43;;;;;;;0.38;0.20;;;25.00;89.10;;;;;;5093079;28;20168;-62
2023/05/06 07:48:08;;;;;;;0.00;0.00;;;24.50;88.40;;;;;;5092963;28;20532;-61
2023/05/06 07:50:34;;;;;;;0.00;0.00;;;24.60;89.80;;;;;;5092955;28;20168;-62
2023/05/06 07:53:00;;;;;;;0.00;0.00;;;25.10;88.90;;;;;;5092682;28;20172;-62
2023/05/06 07:55:27;;;;;;;0.00;0.00;;;25.40;87.10;;;;;;5092232;28;20176;-62
2023/05/06 07:57:52;;;;;;;0.10;0.10;;;25.50;87.20;;;;;;5092770;28;20180;-62
2023/05/06 08:00:18;;;;;;;0.00;0.00;;;25.90;87.10;;;;;;5092662;28;20241;-62
2023/05/06 08:02:45;;;;;;;0.00;0.00;;;26.50;86.00;;;;;;5092762;28;20248;-62
2023/05/06 08:05:11;;;;;;;0.00;0.00;;;26.80;83.50;;;;;;5092559;28;20259;-62
2023/05/06 08:07:39;;;;;;;0.00;0.00;;;27.20;81.80;;;;;;5092625;28;20176;-62
2023/05/06 08:10:06;;;;;;;0.00;0.00;;;27.80;79.60;;;;;;5092490;28;20195;-62
2023/05/06 08:12:31;;;;;;;0.00;0.00;;;28.30;78.20;;;;;;5092677;28;20249;-62
2023/05/06 08:14:57;;;;;;;0.00;0.00;;;28.60;76.80;;;;;;5092234;28;20638;-62
2023/05/06 08:17:22;;;;;;;0.00;0.00;;;29.00;74.20;;;;;;5092528;28;20176;-62
2023/05/06 08:19:48;;;;;;;0.00;0.00;;;28.70;71.30;;;;;;5092300;28;20643;-62
2023/05/06 08:22:15;;;;;;;0.00;0.00;;;28.60;71.80;;;;;;5092239;28;20203;-62
2023/05/06 08:24:40;;;;;;;0.00;0.00;;;28.50;70.70;;;;;;5092035;28;20223;-62
2023/05/06 08:27:06;;;;;;;0.00;0.00;;;28.00;71.00;;;;;;5092159;28;20240;-62
2023/05/06 08:29:31;;;;;;;0.00;0.00;;;27.80;71.80;;;;;;5092375;28;20172;-62
2023/05/06 08:31:57;;;;;;;0.00;0.00;;;27.50;71.50;;;;;;5091976;28;20655;-62
2023/05/06 08:34:22;;;;;;;0.10;0.10;;;27.40;71.70;;;;;;5092053;28;20212;-62
2023/05/06 08:36:48;;;;;;;0.00;0.00;;;27.10;67.80;;;;;;5092011;28;20175;-62
2023/05/06 08:39:14;;;;;;;0.00;0.00;;;26.80;69.90;;;;;;5092015;28;20259;-62
2023/05/06 08:41:40;;;;;;;0.00;0.00;;;26.60;70.80;;;;;;5090811;28;20661;-62
2023/05/06 08:44:07;;;;;;;0.00;0.00;;;26.60;70.80;;;;;;5091672;28;20226;-62
2023/05/06 08:46:32;;;;;;;0.00;0.00;;;26.30;70.50;;;;;;5091923;28;20180;-62
2023/05/06 08:48:58;;;;;;;0.10;0.10;;;26.50;71.40;;;;;;5091727;28;20191;-62
2023/05/06 08:51:28;;;;;;;0.00;0.00;;;26.30;71.80;;;;;;5090823;28;20176;-62
2023/05/06 08:53:54;;;;;;;0.00;0.00;;;26.10;72.40;;;;;;5091370;28;20556;-62
2023/05/06 08:56:26;;;;;;;0.00;0.00;;;25.80;73.90;;;;;;5091615;28;20183;-62
2023/05/06 08:58:52;;;;;;;0.10;0.10;;;25.50;75.00;;;;;;5091559;28;20185;-62
2023/05/06 09:01:18;;;;;;;0.00;0.00;;;24.50;76.10;;;;;;5090454;28;20186;-62
2023/05/06 09:03:45;;;;;;;0.00;0.00;;;24.30;77.20;;;;;;5091739;28;20168;-61
2023/05/06 09:06:11;;;;;;;0.00;0.00;;;24.30;79.50;;;;;;5091410;28;20187;-62
2023/05/06 09:08:36;;;;;;;0.00;0.00;;;24.40;78.00;;;;;;5091612;28;20522;-61
2023/05/06 09:11:02;;;;;;;0.00;0.00;;;24.30;79.70;;;;;;5091621;28;20181;-62
2023/05/06 09:13:28;;;;;;;0.00;0.00;;;24.30;79.50;;;;;;5091347;28;20204;-62
2023/05/06 09:15:54;;;;;;;0.00;0.00;;;24.00;76.10;;;;;;5091429;28;20187;-62
2023/05/06 09:18:19;;;;;;;0.00;0.00;;;24.20;78.30;;;;;;5091256;28;20176;-62
2023/05/06 09:20:47;;;;;;;0.00;0.00;;;24.60;78.50;;;;;;5091567;28;20580;-62
2023/05/06 09:23:15;;;;;;;0.00;0.00;;;25.10;74.80;;;;;;5091227;28;20716;-62
2023/05/06 09:25:42;;;;;;;0.25;0.25;;;25.50;70.60;;;;;;5091438;28;20237;-62
2023/05/06 09:28:09;;;;;;;0.00;0.00;;;25.90;70.00;;;;;;5091400;28;20722;-62
2023/05/06 09:30:43;;;;;;;0.00;0.00;;;26.10;68.50;;;;;;5091570;28;20262;-62
2023/05/06 09:33:10;;;;;;;0.00;0.00;;;26.30;70.40;;;;;;5091276;28;20180;-62
2023/05/06 09:35:40;;;;;;;0.00;0.00;;;26.50;70.70;;;;;;5091462;28;20264;-62
2023/05/06 09:38:07;;;;;;;0.00;0.00;;;26.60;69.10;;;;;;5091432;28;20232;-63
2023/05/06 09:40:36;;;;;;;0.00;0.00;;;26.60;69.10;;;;;;5091439;28;20187;-63
2023/05/06 09:43:02;;;;;;;0.00;0.00;;;26.70;65.60;;;;;;5091295;28;20230;-63
2023/05/06 09:45:29;;;;;;;0.00;0.00;;;26.80;66.00;;;;;;5091336;28;20172;-62
2023/05/06 09:47:55;;;;;;;0.00;0.00;;;26.80;65.00;;;;;;5091358;28;20237;-63
2023/05/06 09:50:22;;;;;;;0.00;0.00;;;26.90;67.90;;;;;;5091322;28;20169;-62
2023/05/06 09:52:48;;;;;;;0.00;0.00;;;26.90;65.60;;;;;;5091387;28;20176;-62
2023/05/06 09:55:16;;;;;;;0.00;0.00;;;26.70;64.80;;;;;;5089816;28;20214;-62
2023/05/06 09:57:43;;;;;;;0.00;0.00;;;26.60;64.40;;;;;;5091306;28;20172;-63
2023/05/06 10:00:10;;;;;;;0.00;0.00;;;26.40;65.10;;;;;;5091118;28;20179;-62
2023/05/06 10:02:37;;;;;;;0.10;0.10;;;26.20;66.70;;;;;;5091097;28;20176;-63
2023/05/06 10:05:07;;;;;;;0.03;0.03;;;26.00;67.60;;;;;;5090970;28;20184;-62
2023/05/06 10:07:34;;;;;;;0.00;0.00;;;25.70;69.50;;;;;;5091162;28;20175;-62
2023/05/06 10:10:00;;;;;;;0.00;0.00;;;25.50;69.10;;;;;;5090866;28;20800;-62
2023/05/06 10:12:27;;;;;;;0.00;0.00;;;25.20;70.30;;;;;;5091156;28;20180;-63
2023/05/06 10:14:52;;;;;;;0.00;0.00;;;25.00;72.50;;;;;;5090733;28;20239;-62
2023/05/06 10:17:22;;;;;;;0.00;0.00;;;24.90;71.30;;;;;;5092120;28;20229;-62
2023/05/06 10:19:50;;;;;;;0.00;0.00;;;25.20;73.60;;;;;;5094666;28;20172;-62
2023/05/06 10:22:54;;;;;;;0.00;0.00;;;25.50;72.00;;;;;;5094173;28;20184;-62
2023/05/06 10:25:27;;;;;;;0.00;0.00;;;25.70;70.80;;;;;;5094014;28;20270;-61
2023/05/06 10:27:52;;;;;;;0.00;0.00;;;25.40;68.30;;;;;;5074321;28;20726;-61
2023/05/06 10:30:18;;;;;;;0.00;0.00;;;25.30;68.80;;;;;;5090155;28;20176;-61
2023/05/06 10:32:45;;;;;;;0.00;0.00;;;25.30;69.50;;;;;;5094489;28;20688;-61
2023/05/06 10:35:42;;;;;;;0.00;0.00;;;25.60;68.90;;;;;;5093716;28;20304;-61
2023/05/06 10:38:14;;;;;;;0.00;0.00;;;26.00;69.60;;;;;;5094370;28;20184;-61
2023/05/06 10:40:40;;;;;;;0.00;0.00;;;26.40;68.50;;;;;;5094113;28;20180;-61
2023/05/06 10:43:27;;;;;;;0.00;0.00;;;26.50;68.50;;;;;;5094297;28;20661;-61
2023/05/06 10:46:03;;;;;;;0.00;0.00;;;26.40;66.80;;;;;;5094067;28;20247;-62
2023/05/06 10:48:29;;;;;;;0.00;0.00;;;26.30;66.60;;;;;;5094349;28;20179;-61
2023/05/06 10:51:16;;;;;;;0.00;0.00;;;26.30;67.80;;;;;;5093874;28;20228;-61
2023/05/06 10:54:15;;;;;;;0.00;0.00;;;26.70;66.40;;;;;;5094001;28;20204;-61
2023/05/06 10:56:50;;;;;;;0.00;0.00;;;27.00;64.50;;;;;;5059366;28;20687;-61
2023/05/06 10:59:20;;;;;;;0.00;0.00;;;27.40;64.10;;;;;;5076733;28;20183;-61
2023/05/06 11:02:02;;;;;;;0.00;0.00;;;27.70;63.50;;;;;;5093442;28;20226;-61
2023/05/06 11:04:30;;;;;;;0.00;0.00;;;27.90;62.40;;;;;;5093376;28;20196;-61
2023/05/06 11:07:19;;;;;;;0.05;0.05;;;27.60;61.20;;;;;;5092498;28;20180;-60
2023/05/06 11:10:00;;;;;;;0.00;0.00;;;27.20;61.60;;;;;;5093440;28;20181;-60
2023/05/06 11:12:55;;;;;;;0.00;0.00;;;26.90;62.60;;;;;;5093812;28;20513;-61
2023/05/06 11:15:25;;;;;;;0.00;0.00;;;26.60;64.20;;;;;;5075973;28;20226;-60
2023/05/06 11:17:53;;;;;;;0.00;0.00;;;26.70;64.70;;;;;;5093550;28;20172;-60
2023/05/06 11:20:22;;;;;;;0.00;0.00;;;27.00;64.80;;;;;;5093202;28;20186;-60
2023/05/06 11:22:48;;;;;;;0.00;0.00;;;27.30;64.60;;;;;;5093727;28;20213;-60
2023/05/06 11:25:34;;;;;;;0.00;0.00;;;27.50;65.10;;;;;;5092861;28;20228;-60
2023/05/06 11:27:59;;;;;;;0.00;0.00;;;27.70;65.00;;;;;;5092687;28;20187;-60
2023/05/06 11:30:25;;;;;;;0.00;0.00;;;27.80;62.30;;;;;;5091731;28;20184;-60
2023/05/06 11:32:54;;;;;;;0.00;0.00;;;27.80;63.30;;;;;;5092944;28;20642;-60
2023/05/06 11:35:21;;;;;;;0.00;0.00;;;28.00;61.80;;;;;;5093200;28;20276;-60
2023/05/06 11:37:47;;;;;;;0.00;0.00;;;28.00;63.40;;;;;;5092914;28;20180;-60
2023/05/06 11:40:14;;;;;;;0.00;0.00;;;28.00;61.60;;;;;;5092996;28;20585;-60
2023/05/06 11:42:40;;;;;;;0.00;0.00;;;27.50;62.30;;;;;;5092920;28;20230;-60
2023/05/06 11:45:06;;;;;;;0.00;0.00;;;27.20;59.30;;;;;;5092898;28;20168;-60
2023/05/06 11:47:31;;;;;;;0.00;0.00;;;26.90;59.70;;;;;;5092712;28;20180;-60
2023/05/06 11:49:57;;;;;;;0.00;0.00;;;26.70;60.70;;;;;;5092820;28;20175;-60
2023/05/06 11:52:23;;;;;;;0.00;0.00;;;26.50;60.30;;;;;;5092509;28;20180;-60
2023/05/06 11:54:52;;;;;;;0.00;0.00;;;26.30;62.00;;;;;;5092871;28;20212;-60
2023/05/06 11:57:19;;;;;;;0.00;0.00;;;25.50;62.20;;;;;;5092496;28;20215;-59
2023/05/06 11:59:44;;;;;;;0.00;0.00;;;25.00;63.80;;;;;;5092776;28;20547;-60
2023/05/06 12:02:12;;;;;;;0.00;0.00;;;24.70;65.80;;;;;;5092328;28;20176;-60
2023/05/06 12:04:39;;;;;;;0.00;0.00;;;24.70;65.60;;;;;;5092615;28;20651;-60
2023/05/06 12:07:06;;;;;;;0.00;0.00;;;25.10;65.20;;;;;;5091932;28;20225;-61
2023/05/06 12:09:33;;;;;;;0.00;0.00;;;25.60;65.20;;;;;;5092283;28;20181;-60
2023/05/06 12:12:01;;;;;;;0.00;0.00;;;25.90;64.90;;;;;;5092526;28;20199;-60
2023/05/06 12:14:27;;;;;;;0.00;0.00;;;26.10;64.80;;;;;;5091953;28;20558;-60
2023/05/06 12:16:52;;;;;;;0.00;0.00;;;26.30;61.90;;;;;;5092423;28;20186;-60
2023/05/06 12:19:19;;;;;;;0.00;0.00;;;26.40;61.30;;;;;;5092000;28;20241;-59
2023/05/06 12:21:45;;;;;;;0.00;0.00;;;26.20;63.00;;;;;;5092149;28;20661;-59
2023/05/06 12:24:11;;;;;;;0.00;0.00;;;26.40;62.30;;;;;;5091359;28;20224;-60
2023/05/06 12:26:48;;;;;;;0.20;0.20;;;26.60;63.40;;;;;;5091966;28;20180;-60
2023/05/06 12:29:16;;;;;;;0.00;0.00;;;26.70;61.50;;;;;;5091822;28;20176;-60
2023/05/06 12:31:46;;;;;;;0.00;0.00;;;26.90;61.70;;;;;;5091629;28;20184;-60
2023/05/06 12:34:13;;;;;;;0.00;0.00;;;27.20;61.90;;;;;;5102675;28;20341;-60
2023/05/06 12:36:40;;;;;;;0.00;0.00;;;27.50;59.40;;;;;;5092011;28;20690;-60
2023/05/06 12:39:06;;;;;;;0.00;0.00;;;27.70;59.00;;;;;;5091763;28;20268;-60
2023/05/06 12:41:49;;;;;;;0.00;0.00;;;27.70;57.10;;;;;;5091173;28;20255;-60
2023/05/06 12:44:38;;;;;;;0.00;0.00;;;27.70;57.20;;;;;;5091840;28;20172;-60
2023/05/06 12:47:08;;;;;;;0.00;0.00;;;27.80;57.00;;;;;;5091694;28;20217;-60
2023/05/06 12:49:44;;;;;;;0.00;0.00;;;27.80;56.70;;;;;;5091891;28;20208;-61